Time;durP1;ratioP1;P1;durP2;ratioP2;P2;SDS_P1;SDS_P2;PMS_P1;PMS_P2;Temp;Humidity;BMP_temperature;BMP_pressure;BME280_temperature;BME280_humidity;BME280_pressure;Samples;Min_cycle;Max_cycle;Signal;HPM_P1;HPM_P2
2021/09/08 00:01:47;;;;;;;9.75;4.65;;;;;;;;;;7391130;19;20027;-55
2021/09/08 00:04:15;;;;;;;6.47;4.28;;;;;;;;;;7391185;19;20053;-58
2021/09/08 00:06:42;;;;;;;6.20;4.15;;;;;;;;;;7391102;19;20018;-55
2021/09/08 00:09:10;;;;;;;7.35;4.45;;;;;;;;;;7391110;19;20538;-56
2021/09/08 00:11:38;;;;;;;9.38;4.63;;;;;;;;;;7390475;19;20035;-57
2021/09/08 00:14:06;;;;;;;6.30;4.28;;;;;;;;;;7390929;19;20070;-58
2021/09/08 00:16:33;;;;;;;9.93;4.07;;;;;;;;;;7391162;19;20495;-57
2021/09/08 00:19:00;;;;;;;7.63;4.10;;;;;;;;;;7391124;19;20011;-57
2021/09/08 00:21:28;;;;;;;5.18;3.55;;;;;;;;;;7391265;19;20007;-58
2021/09/08 00:23:55;;;;;;;7.90;3.75;;;;;;;;;;7390264;19;20019;-56
2021/09/08 00:26:24;;;;;;;7.35;4.30;;;;;;;;;;7390592;19;20035;-59
2021/09/08 00:28:51;;;;;;;5.60;3.33;;;;;;;;;;7390377;19;20015;-59
2021/09/08 00:31:20;;;;;;;5.82;3.65;;;;;;;;;;7390039;19;20074;-56
2021/09/08 00:33:48;;;;;;;6.70;3.70;;;;;;;;;;7390470;19;20015;-58
2021/09/08 00:36:16;;;;;;;8.75;3.72;;;;;;;;;;7390259;19;20011;-59
2021/09/08 00:38:46;;;;;;;5.13;3.40;;;;;;;;;;7390563;19;20078;-57
2021/09/08 00:41:13;;;;;;;6.55;4.07;;;;;;;;;;7388356;19;20007;-57
2021/09/08 00:43:42;;;;;;;4.43;2.97;;;;;;;;;;7389889;19;20480;-58
2021/09/08 00:46:10;;;;;;;4.75;2.83;;;;;;;;;;7390347;19;20043;-57
2021/09/08 00:48:38;;;;;;;6.03;3.40;;;;;;;;;;7390315;19;20017;-55
2021/09/08 00:51:05;;;;;;;5.90;3.72;;;;;;;;;;7390223;19;20023;-58
2021/09/08 00:53:34;;;;;;;8.55;3.20;;;;;;;;;;7393001;19;20006;-57
2021/09/08 00:56:03;;;;;;;10.10;3.17;;;;;;;;;;7398111;19;20051;-58
2021/09/08 00:58:32;;;;;;;5.50;3.92;;;;;;;;;;7397486;19;20007;-51
2021/09/08 01:01:01;;;;;;;4.45;2.90;;;;;;;;;;7397650;19;20018;-54
2021/09/08 01:03:30;;;;;;;6.32;3.22;;;;;;;;;;7397319;19;20353;-55
2021/09/08 01:06:01;;;;;;;7.20;3.17;;;;;;;;;;7397916;19;20015;-58
2021/09/08 01:08:30;;;;;;;4.50;3.30;;;;;;;;;;7397695;19;20014;-58
2021/09/08 01:11:01;;;;;;;6.88;4.00;;;;;;;;;;7397028;19;20011;-59
2021/09/08 01:13:29;;;;;;;4.35;3.08;;;;;;;;;;7394818;19;20029;-53
2021/09/08 01:16:05;;;;;;;6.82;3.42;;;;;;;;;;7396303;19;20045;-59
2021/09/08 01:18:36;;;;;;;5.20;3.10;;;;;;;;;;7397320;19;20002;-52
2021/09/08 01:21:04;;;;;;;5.13;2.92;;;;;;;;;;7397077;19;20014;-59
2021/09/08 01:23:32;;;;;;;5.90;3.25;;;;;;;;;;7396369;19;20370;-56
2021/09/08 01:26:03;;;;;;;5.30;3.08;;;;;;;;;;7397194;19;20007;-55
2021/09/08 01:28:31;;;;;;;6.72;3.78;;;;;;;;;;7395998;19;20015;-58
2021/09/08 01:31:00;;;;;;;5.55;3.50;;;;;;;;;;7396375;19;20019;-58
2021/09/08 01:33:27;;;;;;;7.00;4.13;;;;;;;;;;7393891;19;20078;-57
2021/09/08 01:35:54;;;;;;;40.88;17.88;;;;;;;;;;7395755;19;20027;-57
2021/09/08 01:38:22;;;;;;;96.63;41.80;;;;;;;;;;7396000;19;20007;-51
2021/09/08 01:40:49;;;;;;;9.65;6.68;;;;;;;;;;7395598;19;20019;-59
2021/09/08 01:43:24;;;;;;;9.68;4.30;;;;;;;;;;7396039;19;20034;-56
2021/09/08 01:45:53;;;;;;;7.10;4.18;;;;;;;;;;7395529;19;20027;-59
2021/09/08 01:48:20;;;;;;;6.72;4.60;;;;;;;;;;7395169;19;20011;-55
2021/09/08 01:50:48;;;;;;;6.35;4.03;;;;;;;;;;7395509;19;20488;-59
2021/09/08 01:53:16;;;;;;;9.63;4.15;;;;;;;;;;7398666;19;20018;-56
2021/09/08 01:55:44;;;;;;;8.23;4.70;;;;;;;;;;7395237;19;20070;-58
2021/09/08 01:58:12;;;;;;;6.53;3.80;;;;;;;;;;7395196;19;20032;-59
2021/09/08 02:00:39;;;;;;;6.30;4.15;;;;;;;;;;7395344;19;20031;-59
2021/09/08 02:03:07;;;;;;;6.40;3.97;;;;;;;;;;7395503;19;20018;-58
2021/09/08 02:05:35;;;;;;;9.43;4.88;;;;;;;;;;7391274;19;20408;-56
2021/09/08 02:08:02;;;;;;;7.45;4.65;;;;;;;;;;7394683;19;20006;-58
2021/09/08 02:10:30;;;;;;;12.32;4.40;;;;;;;;;;7399936;19;20010;-59
2021/09/08 02:12:58;;;;;;;119.00;53.45;;;;;;;;;;7393413;19;20010;-56
2021/09/08 02:15:26;;;;;;;9.10;5.40;;;;;;;;;;7392525;19;20010;-56
2021/09/08 02:17:53;;;;;;;9.07;4.40;;;;;;;;;;7396982;19;20015;-57
2021/09/08 02:20:20;;;;;;;7.30;4.20;;;;;;;;;;7394780;19;20025;-58
2021/09/08 02:22:48;;;;;;;6.05;3.75;;;;;;;;;;7394469;19;20018;-59
2021/09/08 02:25:15;;;;;;;7.07;4.35;;;;;;;;;;7393908;19;20007;-59
2021/09/08 02:27:42;;;;;;;12.63;3.92;;;;;;;;;;7392680;19;20045;-58
2021/09/08 02:30:10;;;;;;;8.98;4.00;;;;;;;;;;7392007;19;20015;-58
2021/09/08 02:32:38;;;;;;;7.35;3.55;;;;;;;;;;7393380;19;20021;-61
2021/09/08 02:35:06;;;;;;;19.83;10.43;;;;;;;;;;7394023;19;20053;-58
2021/09/08 02:37:34;;;;;;;9.98;4.63;;;;;;;;;;7394022;19;20356;-55
2021/09/08 02:40:03;;;;;;;6.75;3.72;;;;;;;;;;7392616;19;20016;-58
2021/09/08 02:42:30;;;;;;;6.70;3.72;;;;;;;;;;7393681;19;20479;-58
2021/09/08 02:44:58;;;;;;;6.70;3.30;;;;;;;;;;7393891;19;20011;-59
2021/09/08 02:47:25;;;;;;;7.38;3.80;;;;;;;;;;7393311;19;20077;-58
2021/09/08 02:49:52;;;;;;;9.05;3.95;;;;;;;;;;7393568;19;20015;-57
2021/09/08 02:52:20;;;;;;;6.97;3.35;;;;;;;;;;7394880;19;20476;-57
2021/09/08 02:54:47;;;;;;;13.45;6.40;;;;;;;;;;7393766;19;20014;-58
2021/09/08 02:57:14;;;;;;;8.32;3.67;;;;;;;;;;7393383;19;20719;-59
2021/09/08 02:59:42;;;;;;;6.82;3.80;;;;;;;;;;7393208;19;20010;-59
2021/09/08 03:02:09;;;;;;;4.95;3.20;;;;;;;;;;7393090;19;20025;-59
2021/09/08 03:04:37;;;;;;;6.50;3.67;;;;;;;;;;7391569;19;20025;-58
2021/09/08 03:07:04;;;;;;;5.10;3.28;;;;;;;;;;7393284;19;20365;-59
2021/09/08 03:09:32;;;;;;;9.27;3.30;;;;;;;;;;7392992;19;20479;-55
2021/09/08 03:11:59;;;;;;;5.68;3.67;;;;;;;;;;7392283;19;20035;-59
2021/09/08 03:14:26;;;;;;;6.38;3.95;;;;;;;;;;7392778;19;20483;-57
2021/09/08 03:16:54;;;;;;;6.53;3.53;;;;;;;;;;7391828;19;20011;-51
2021/09/08 03:19:21;;;;;;;6.50;3.45;;;;;;;;;;7392526;19;20014;-58
2021/09/08 03:21:48;;;;;;;21.27;12.45;;;;;;;;;;7390390;19;20386;-58
2021/09/08 03:24:16;;;;;;;12.90;4.20;;;;;;;;;;7392317;19;20011;-59
2021/09/08 03:26:43;;;;;;;7.15;3.60;;;;;;;;;;7393947;19;20011;-56
2021/09/08 03:29:11;;;;;;;6.32;3.25;;;;;;;;;;7391840;19;20017;-54
2021/09/08 03:31:38;;;;;;;8.63;3.45;;;;;;;;;;7392198;19;20011;-59
2021/09/08 03:34:05;;;;;;;7.10;3.08;;;;;;;;;;7391006;19;20028;-57
2021/09/08 03:36:33;;;;;;;4.57;2.80;;;;;;;;;;7392349;19;20074;-51
2021/09/08 03:39:00;;;;;;;7.90;3.08;;;;;;;;;;7392601;19;20007;-59
2021/09/08 03:41:27;;;;;;;6.05;3.88;;;;;;;;;;7391907;19;20027;-59
2021/09/08 03:43:55;;;;;;;9.35;5.15;;;;;;;;;;7392119;19;20021;-58
2021/09/08 03:46:22;;;;;;;4.90;2.90;;;;;;;;;;7391698;19;20014;-58
2021/09/08 03:48:50;;;;;;;4.75;2.78;;;;;;;;;;7391782;19;20006;-58
2021/09/08 03:51:17;;;;;;;6.07;3.10;;;;;;;;;;7391954;19;20078;-58
2021/09/08 03:53:45;;;;;;;5.95;3.03;;;;;;;;;;7390513;19;20104;-57
2021/09/08 03:56:12;;;;;;;5.43;3.25;;;;;;;;;;7391499;19;20023;-55
2021/09/08 03:58:40;;;;;;;4.35;2.60;;;;;;;;;;7391508;19;20014;-59
2021/09/08 04:01:08;;;;;;;5.82;2.70;;;;;;;;;;7391422;19;20010;-58
2021/09/08 04:03:36;;;;;;;14.00;4.68;;;;;;;;;;7391297;19;20011;-51
2021/09/08 04:06:04;;;;;;;8.00;4.68;;;;;;;;;;7391311;19;20012;-59
2021/09/08 04:08:31;;;;;;;8.48;3.95;;;;;;;;;;7389762;19;20022;-58
2021/09/08 04:10:59;;;;;;;7.63;2.78;;;;;;;;;;7390963;19;20010;-58
2021/09/08 04:13:26;;;;;;;6.60;3.15;;;;;;;;;;7390050;19;20479;-58
2021/09/08 04:15:53;;;;;;;5.68;3.28;;;;;;;;;;7390486;19;20015;-59
2021/09/08 04:18:21;;;;;;;3.95;2.35;;;;;;;;;;7390719;19;20475;-56
2021/09/08 04:20:48;;;;;;;6.53;3.10;;;;;;;;;;7391202;19;20007;-58
2021/09/08 04:23:15;;;;;;;6.60;2.70;;;;;;;;;;7390414;19;20027;-59
2021/09/08 04:25:42;;;;;;;3.67;2.22;;;;;;;;;;7390414;19;20006;-58
2021/09/08 04:28:10;;;;;;;5.78;2.50;;;;;;;;;;7394874;19;20047;-56
2021/09/08 04:30:38;;;;;;;4.57;2.55;;;;;;;;;;7398447;19;20014;-58
2021/09/08 04:33:08;;;;;;;4.70;2.80;;;;;;;;;;7396668;19;20014;-59
2021/09/08 04:35:35;;;;;;;65.25;33.72;;;;;;;;;;7397648;19;20014;-56
2021/09/08 04:38:04;;;;;;;16.35;7.05;;;;;;;;;;7396572;19;20015;-59
2021/09/08 04:40:31;;;;;;;6.32;2.60;;;;;;;;;;7398341;19;20026;-57
2021/09/08 04:42:59;;;;;;;4.53;2.17;;;;;;;;;;7397716;19;20479;-58
2021/09/08 04:45:26;;;;;;;3.42;2.30;;;;;;;;;;7397297;19;20006;-58
2021/09/08 04:47:53;;;;;;;5.53;2.28;;;;;;;;;;7397881;19;20021;-58
2021/09/08 04:50:21;;;;;;;7.00;2.47;;;;;;;;;;7397667;19;20022;-55
2021/09/08 04:52:49;;;;;;;4.82;2.20;;;;;;;;;;7400119;19;20047;-59
2021/09/08 04:55:16;;;;;;;3.25;2.10;;;;;;;;;;7397224;19;20024;-58
2021/09/08 04:57:43;;;;;;;4.30;1.92;;;;;;;;;;7397059;19;20007;-57
2021/09/08 05:00:11;;;;;;;3.95;2.28;;;;;;;;;;7396680;19;20017;-58
2021/09/08 05:02:39;;;;;;;2.88;1.83;;;;;;;;;;7396696;19;20010;-59
2021/09/08 05:05:07;;;;;;;5.65;2.08;;;;;;;;;;7397344;19;20014;-56
2021/09/08 05:07:36;;;;;;;5.47;2.42;;;;;;;;;;7396892;19;20019;-57
2021/09/08 05:10:04;;;;;;;4.53;2.03;;;;;;;;;;7397484;19;20029;-60
2021/09/08 05:12:31;;;;;;;3.42;2.15;;;;;;;;;;7396282;19;20394;-60
2021/09/08 05:14:58;;;;;;;17.10;8.68;;;;;;;;;;7396670;19;20043;-55
2021/09/08 05:17:26;;;;;;;16.90;9.95;;;;;;;;;;7396476;19;20011;-57
2021/09/08 05:19:53;;;;;;;4.30;2.45;;;;;;;;;;7397225;19;20061;-55
2021/09/08 05:22:21;;;;;;;3.17;2.00;;;;;;;;;;7394986;19;20018;-54
2021/09/08 05:24:48;;;;;;;6.45;2.28;;;;;;;;;;7396340;19;20006;-58
2021/09/08 05:27:16;;;;;;;3.03;1.73;;;;;;;;;;7396406;19;20082;-59
2021/09/08 05:29:44;;;;;;;5.93;2.10;;;;;;;;;;7394277;19;20014;-59
2021/09/08 05:32:11;;;;;;;5.00;1.88;;;;;;;;;;7396202;19;20011;-59
2021/09/08 05:34:39;;;;;;;2.95;1.65;;;;;;;;;;7393886;19;20013;-59
2021/09/08 05:37:06;;;;;;;7.78;1.95;;;;;;;;;;7396270;19;20078;-58
2021/09/08 05:39:34;;;;;;;2.35;1.52;;;;;;;;;;7391533;19;20027;-57
2021/09/08 05:42:01;;;;;;;6.95;2.10;;;;;;;;;;7395424;19;20006;-52
2021/09/08 05:44:28;;;;;;;5.05;1.63;;;;;;;;;;7391859;19;20010;-54
2021/09/08 05:46:57;;;;;;;3.25;1.80;;;;;;;;;;7391084;19;20015;-47
2021/09/08 05:49:24;;;;;;;3.88;1.70;;;;;;;;;;7391039;19;20021;-54
2021/09/08 05:51:52;;;;;;;3.88;2.00;;;;;;;;;;7392648;19;20349;-50
2021/09/08 05:54:19;;;;;;;3.65;1.70;;;;;;;;;;7387561;19;20010;-55
2021/09/08 05:56:46;;;;;;;4.80;2.30;;;;;;;;;;7391052;19;20014;-50
2021/09/08 05:59:14;;;;;;;4.00;1.60;;;;;;;;;;7393287;19;20027;-55
2021/09/08 06:01:45;;;;;;;7.30;1.70;;;;;;;;;;7395235;19;20047;-54
2021/09/08 06:04:13;;;;;;;3.08;1.50;;;;;;;;;;7395106;19;20070;-51
2021/09/08 06:06:40;;;;;;;3.85;1.50;;;;;;;;;;7394630;19;20007;-52
2021/09/08 06:09:08;;;;;;;2.97;1.40;;;;;;;;;;7395126;19;20025;-50
2021/09/08 06:11:35;;;;;;;3.47;1.45;;;;;;;;;;7394770;19;20013;-50
2021/09/08 06:14:03;;;;;;;4.82;1.67;;;;;;;;;;7393721;19;20483;-46
2021/09/08 06:16:30;;;;;;;3.33;1.40;;;;;;;;;;7397007;19;20508;-48
2021/09/08 06:18:57;;;;;;;9.88;1.52;;;;;;;;;;7397992;19;20035;-54
2021/09/08 06:21:25;;;;;;;3.17;1.33;;;;;;;;;;7394208;19;20007;-55
2021/09/08 06:23:53;;;;;;;3.22;1.15;;;;;;;;;;7394546;19;20010;-50
2021/09/08 06:26:20;;;;;;;3.80;1.55;;;;;;;;;;7394332;19;20010;-52
2021/09/08 06:28:49;;;;;;;2.60;1.27;;;;;;;;;;7392522;19;20015;-55
2021/09/08 06:31:16;;;;;;;3.38;1.48;;;;;;;;;;7394394;19;20010;-47
2021/09/08 06:33:44;;;;;;;2.65;1.40;;;;;;;;;;7393121;19;20014;-54
2021/09/08 06:36:11;;;;;;;2.55;1.20;;;;;;;;;;7393510;19;20027;-47
2021/09/08 06:38:39;;;;;;;3.28;1.42;;;;;;;;;;7393976;19;20007;-54
2021/09/08 06:41:09;;;;;;;5.10;1.40;;;;;;;;;;7393839;19;20010;-53
2021/09/08 06:43:36;;;;;;;6.47;1.52;;;;;;;;;;7393991;19;20014;-53
2021/09/08 06:46:04;;;;;;;2.67;1.13;;;;;;;;;;7394158;19;20010;-55
2021/09/08 06:48:31;;;;;;;3.17;1.30;;;;;;;;;;7393783;19;20010;-51
2021/09/08 06:50:59;;;;;;;5.13;1.08;;;;;;;;;;7392464;19;20006;-56
2021/09/08 06:53:26;;;;;;;3.10;1.10;;;;;;;;;;7392753;19;20011;-54
2021/09/08 06:55:54;;;;;;;2.15;1.00;;;;;;;;;;7392902;19;20021;-56
2021/09/08 06:58:21;;;;;;;3.13;1.23;;;;;;;;;;7393157;19;20006;-47
2021/09/08 07:00:49;;;;;;;2.35;1.10;;;;;;;;;;7392210;19;20014;-52
2021/09/08 07:03:16;;;;;;;1.83;0.90;;;;;;;;;;7393021;19;20011;-49
2021/09/08 07:05:45;;;;;;;5.00;1.17;;;;;;;;;;7392928;19;20035;-57
2021/09/08 07:08:14;;;;;;;3.67;1.15;;;;;;;;;;7393074;19;20028;-58
2021/09/08 07:10:42;;;;;;;2.95;1.25;;;;;;;;;;7392677;19;20023;-47
2021/09/08 07:13:09;;;;;;;1.88;1.10;;;;;;;;;;7392539;19;20011;-58
2021/09/08 07:15:37;;;;;;;3.75;1.23;;;;;;;;;;7391820;19;20014;-54
2021/09/08 07:18:04;;;;;;;2.70;1.20;;;;;;;;;;7392903;19;20010;-56
2021/09/08 07:20:32;;;;;;;3.10;1.20;;;;;;;;;;7393247;19;20042;-54
2021/09/08 07:23:00;;;;;;;3.83;1.13;;;;;;;;;;7392794;19;20006;-55
2021/09/08 07:25:27;;;;;;;2.60;1.15;;;;;;;;;;7392323;19;20010;-50
2021/09/08 07:27:54;;;;;;;3.47;1.08;;;;;;;;;;7392073;19;20487;-55
2021/09/08 07:30:22;;;;;;;4.65;1.05;;;;;;;;;;7390655;19;20011;-55
2021/09/08 07:32:49;;;;;;;1.70;0.93;;;;;;;;;;7392551;19;20010;-52
2021/09/08 07:35:17;;;;;;;1.77;0.98;;;;;;;;;;7390408;19;20475;-57
2021/09/08 07:37:45;;;;;;;2.90;1.13;;;;;;;;;;7392104;19;20010;-49
2021/09/08 07:40:12;;;;;;;4.75;1.38;;;;;;;;;;7391758;19;20025;-55
2021/09/08 07:42:40;;;;;;;3.08;1.10;;;;;;;;;;7391499;19;20007;-57
2021/09/08 07:45:08;;;;;;;3.70;1.27;;;;;;;;;;7390407;19;20030;-57
2021/09/08 07:47:36;;;;;;;3.03;0.95;;;;;;;;;;7391321;19;20073;-47
2021/09/08 07:50:04;;;;;;;1.23;0.80;;;;;;;;;;7392045;19;20006;-56
2021/09/08 07:52:32;;;;;;;4.57;0.95;;;;;;;;;;7395087;19;20007;-57
2021/09/08 07:55:00;;;;;;;2.92;1.00;;;;;;;;;;7389808;19;20010;-53
2021/09/08 07:57:28;;;;;;;3.15;1.10;;;;;;;;;;7391565;19;20010;-57
2021/09/08 07:59:55;;;;;;;4.60;1.15;;;;;;;;;;7390657;19;20035;-52
2021/09/08 08:02:22;;;;;;;2.00;1.05;;;;;;;;;;7389143;19;20018;-51
2021/09/08 08:04:50;;;;;;;2.00;1.10;;;;;;;;;;7391202;19;20014;-57
2021/09/08 08:07:18;;;;;;;3.85;1.42;;;;;;;;;;7389795;19;20028;-56
2021/09/08 08:09:45;;;;;;;4.40;1.10;;;;;;;;;;7390665;19;20843;-53
2021/09/08 08:12:13;;;;;;;2.10;1.13;;;;;;;;;;7391023;19;20337;-52
2021/09/08 08:14:40;;;;;;;3.10;1.08;;;;;;;;;;7389713;19;20081;-54
2021/09/08 08:17:07;;;;;;;2.35;1.38;;;;;;;;;;7390480;19;20340;-53
2021/09/08 08:19:35;;;;;;;2.83;1.13;;;;;;;;;;7391151;19;20118;-56
2021/09/08 08:22:03;;;;;;;1.50;0.98;;;;;;;;;;7390846;19;20007;-56
2021/09/08 08:24:31;;;;;;;2.88;1.30;;;;;;;;;;7390861;19;20018;-56
2021/09/08 08:27:00;;;;;;;1.75;0.70;;;;;;;;;;7390265;19;20035;-58
2021/09/08 08:29:28;;;;;;;2.25;1.00;;;;;;;;;;7389940;19;20102;-51
2021/09/08 08:31:55;;;;;;;3.05;0.75;;;;;;;;;;7390075;19;20027;-57
2021/09/08 08:34:23;;;;;;;4.85;1.30;;;;;;;;;;7389437;19;20007;-55
2021/09/08 08:36:51;;;;;;;2.28;0.98;;;;;;;;;;7389977;19;20011;-57
2021/09/08 08:39:20;;;;;;;1.88;0.80;;;;;;;;;;7390345;19;20329;-57
2021/09/08 08:41:48;;;;;;;2.65;1.10;;;;;;;;;;7389943;19;20022;-55
2021/09/08 08:44:22;;;;;;;2.92;0.95;;;;;;;;;;7390617;19;20022;-58
2021/09/08 08:46:51;;;;;;;4.13;1.13;;;;;;;;;;7389994;19;20043;-56
2021/09/08 08:49:22;;;;;;;3.75;1.23;;;;;;;;;;7389590;19;20016;-57
2021/09/08 08:51:50;;;;;;;3.47;1.30;;;;;;;;;;7391469;19;20022;-52
2021/09/08 08:54:17;;;;;;;1.85;0.90;;;;;;;;;;7389013;19;20022;-57
2021/09/08 08:56:45;;;;;;;3.78;1.52;;;;;;;;;;7389899;19;20013;-57
2021/09/08 08:59:12;;;;;;;2.03;1.50;;;;;;;;;;7390014;19;20014;-56
2021/09/08 09:01:40;;;;;;;8.20;1.50;;;;;;;;;;7389519;19;20078;-55
2021/09/08 09:04:09;;;;;;;3.13;1.52;;;;;;;;;;7390080;19;20029;-57
2021/09/08 09:06:41;;;;;;;4.97;1.40;;;;;;;;;;7390037;19;20047;-56
2021/09/08 09:09:12;;;;;;;2.50;1.48;;;;;;;;;;7389872;19;20018;-54
2021/09/08 09:11:42;;;;;;;2.08;1.50;;;;;;;;;;7389389;19;20010;-55
2021/09/08 09:14:12;;;;;;;2.90;1.38;;;;;;;;;;7392498;19;20536;-50
2021/09/08 09:16:41;;;;;;;2.42;1.75;;;;;;;;;;7396514;19;20014;-55
2021/09/08 09:19:10;;;;;;;2.78;1.80;;;;;;;;;;7401290;19;20010;-56
2021/09/08 09:21:38;;;;;;;4.53;1.60;;;;;;;;;;7399730;19;20041;-58
2021/09/08 09:24:08;;;;;;;2.60;1.70;;;;;;;;;;7396962;19;20082;-56
2021/09/08 09:26:38;;;;;;;2.58;1.35;;;;;;;;;;7396562;19;20066;-57
2021/09/08 09:29:20;;;;;;;3.10;1.75;;;;;;;;;;7395458;19;20014;-57
2021/09/08 09:31:53;;;;;;;3.17;1.50;;;;;;;;;;7395659;19;20010;-55
2021/09/08 09:34:23;;;;;;;5.28;1.58;;;;;;;;;;7395277;19;20011;-54
2021/09/08 09:36:58;;;;;;;1.70;1.40;;;;;;;;;;7396223;19;20006;-56
2021/09/08 09:39:34;;;;;;;6.63;1.30;;;;;;;;;;7395705;19;20629;-56
2021/09/08 09:42:06;;;;;;;4.70;1.77;;;;;;;;;;7395881;19;20014;-48
2021/09/08 09:44:34;;;;;;;2.22;1.63;;;;;;;;;;7395784;19;20023;-54
2021/09/08 09:47:02;;;;;;;6.18;1.52;;;;;;;;;;7395615;19;20047;-56
2021/09/08 09:49:33;;;;;;;2.35;1.45;;;;;;;;;;7394207;19;20035;-50
2021/09/08 09:52:07;;;;;;;3.13;1.20;;;;;;;;;;7397015;19;20035;-55
2021/09/08 09:54:36;;;;;;;6.70;1.48;;;;;;;;;;7394492;19;20083;-57
2021/09/08 09:57:04;;;;;;;3.03;1.10;;;;;;;;;;7395501;19;20081;-51
2021/09/08 09:59:32;;;;;;;2.78;1.55;;;;;;;;;;7395299;19;20010;-56
2021/09/08 10:01:59;;;;;;;3.88;1.40;;;;;;;;;;7395792;19;20031;-57
2021/09/08 10:04:27;;;;;;;3.50;1.10;;;;;;;;;;7394997;19;20007;-57
2021/09/08 10:06:56;;;;;;;3.10;1.20;;;;;;;;;;7395142;19;20013;-57
2021/09/08 10:09:26;;;;;;;5.75;1.42;;;;;;;;;;7395079;19;20025;-55
2021/09/08 10:11:56;;;;;;;5.05;1.33;;;;;;;;;;7394432;19;20021;-53
2021/09/08 10:14:26;;;;;;;4.18;1.30;;;;;;;;;;7394148;19;20160;-56
2021/09/08 10:16:54;;;;;;;2.28;1.20;;;;;;;;;;7394177;19;20492;-58
2021/09/08 10:19:26;;;;;;;3.20;1.17;;;;;;;;;;7396240;19;20013;-47
2021/09/08 10:22:09;;;;;;;1.33;0.90;;;;;;;;;;7394209;19;20350;-56
2021/09/08 10:24:44;;;;;;;4.07;1.52;;;;;;;;;;7393324;19;20010;-53
2021/09/08 10:27:29;;;;;;;1.85;1.05;;;;;;;;;;7393596;19;20479;-55
2021/09/08 10:29:58;;;;;;;2.38;1.08;;;;;;;;;;7393223;19;20018;-53
2021/09/08 10:32:26;;;;;;;1.80;0.88;;;;;;;;;;7398219;19;20013;-49
2021/09/08 10:34:54;;;;;;;3.25;1.00;;;;;;;;;;7393252;19;20007;-56
2021/09/08 10:37:23;;;;;;;3.20;1.10;;;;;;;;;;7393982;19;20017;-56
2021/09/08 10:39:54;;;;;;;2.92;0.82;;;;;;;;;;7396741;19;20094;-57
2021/09/08 10:43:00;;;;;;;1.48;0.77;;;;;;;;;;7393796;19;20517;-54
2021/09/08 10:45:30;;;;;;;4.65;1.17;;;;;;;;;;7393563;19;20487;-54
2021/09/08 10:48:03;;;;;;;2.40;0.80;;;;;;;;;;7393001;19;20019;-57
2021/09/08 10:50:42;;;;;;;2.10;0.70;;;;;;;;;;7392721;19;20021;-53
2021/09/08 10:53:19;;;;;;;3.25;0.80;;;;;;;;;;7397698;19;20494;-54
2021/09/08 10:55:49;;;;;;;1.60;1.00;;;;;;;;;;7391763;19;20021;-49
2021/09/08 10:58:17;;;;;;;3.60;0.80;;;;;;;;;;7393182;19;20483;-46
2021/09/08 11:00:46;;;;;;;1.92;1.02;;;;;;;;;;7393683;19;20364;-56
2021/09/08 11:03:16;;;;;;;1.63;1.00;;;;;;;;;;7393656;19;20011;-55
2021/09/08 11:05:55;;;;;;;1.25;0.75;;;;;;;;;;7393278;19;20013;-55
2021/09/08 11:08:27;;;;;;;3.88;0.82;;;;;;;;;;7392833;19;20014;-54
2021/09/08 11:11:24;;;;;;;2.08;0.85;;;;;;;;;;7392255;19;20011;-50
2021/09/08 11:13:54;;;;;;;1.45;1.02;;;;;;;;;;7392355;19;20014;-51
2021/09/08 11:16:28;;;;;;;4.03;0.70;;;;;;;;;;7392153;19;20039;-55
2021/09/08 11:18:56;;;;;;;;;;;;;;;;;;7393812;19;20027;-55
2021/09/08 11:21:27;;;;;;;1.52;0.70;;;;;;;;;;7392415;19;20343;-50
2021/09/08 11:24:01;;;;;;;0.70;0.52;;;;;;;;;;7392763;19;20010;-56
2021/09/08 11:26:31;;;;;;;3.88;0.98;;;;;;;;;;7391902;19;20381;-56
2021/09/08 11:29:11;;;;;;;1.42;0.88;;;;;;;;;;7391979;19;20353;-55
2021/09/08 11:31:40;;;;;;;1.05;0.77;;;;;;;;;;7391610;19;20710;-52
2021/09/08 11:34:23;;;;;;;3.63;0.93;;;;;;;;;;7391984;19;20046;-49
2021/09/08 11:36:56;;;;;;;1.88;0.70;;;;;;;;;;7392501;19;20010;-56
2021/09/08 11:39:25;;;;;;;3.90;1.00;;;;;;;;;;7391966;19;20011;-53
2021/09/08 11:41:56;;;;;;;1.55;0.82;;;;;;;;;;7391892;19;20017;-56
2021/09/08 11:44:23;;;;;;;1.25;0.85;;;;;;;;;;7392285;19;20093;-52
2021/09/08 11:46:51;;;;;;;1.77;0.93;;;;;;;;;;7391521;19;20077;-53
2021/09/08 11:49:19;;;;;;;2.97;1.10;;;;;;;;;;7391717;19;20019;-56
2021/09/08 11:51:46;;;;;;;2.70;1.10;;;;;;;;;;7391634;19;20018;-56
2021/09/08 11:54:23;;;;;;;3.42;1.20;;;;;;;;;;7391889;19;20014;-56
2021/09/08 11:56:58;;;;;;;1.70;0.80;;;;;;;;;;7390953;19;20011;-50
2021/09/08 11:59:29;;;;;;;0.93;0.57;;;;;;;;;;7391780;19;20035;-56
2021/09/08 12:01:57;;;;;;;1.15;0.60;;;;;;;;;;7391140;19;20543;-51
2021/09/08 12:04:26;;;;;;;1.02;0.50;;;;;;;;;;7389549;19;20476;-54
2021/09/08 12:07:01;;;;;;;1.05;0.60;;;;;;;;;;7390950;19;20010;-55
2021/09/08 12:09:33;;;;;;;1.05;0.75;;;;;;;;;;7390848;19;20014;-48
2021/09/08 12:12:03;;;;;;;3.95;0.90;;;;;;;;;;7391115;19;20017;-58
2021/09/08 12:14:40;;;;;;;1.02;0.55;;;;;;;;;;7390586;19;20015;-58
2021/09/08 12:17:13;;;;;;;1.27;0.52;;;;;;;;;;7391121;19;20035;-47
2021/09/08 12:19:42;;;;;;;;;;;;;;;;;;7391370;19;20011;-57
2021/09/08 12:22:15;;;;;;;0.93;0.50;;;;;;;;;;7389694;19;19919;-52
2021/09/08 12:24:44;;;;;;;25.25;12.52;;;;;;;;;;7391065;19;20011;-51
2021/09/08 12:27:35;;;;;;;2.25;0.85;;;;;;;;;;7390324;19;20500;-57
2021/09/08 12:30:07;;;;;;;2.40;0.43;;;;;;;;;;7389577;19;20022;-49
2021/09/08 12:33:03;;;;;;;0.77;0.40;;;;;;;;;;7390709;19;20039;-55
2021/09/08 12:35:52;;;;;;;1.35;0.30;;;;;;;;;;7389552;19;20007;-56
2021/09/08 12:38:30;;;;;;;1.33;0.52;;;;;;;;;;7390801;19;20021;-54
2021/09/08 12:41:17;;;;;;;104.60;57.13;;;;;;;;;;7390627;19;20029;-47
2021/09/08 12:44:03;;;;;;;17.08;9.63;;;;;;;;;;7390391;19;20007;-52
2021/09/08 12:46:46;;;;;;;2.47;0.95;;;;;;;;;;7390113;19;20078;-49
2021/09/08 12:49:16;;;;;;;0.75;0.40;;;;;;;;;;7394624;19;20026;-51
2021/09/08 12:51:45;;;;;;;1.13;0.40;;;;;;;;;;7397201;19;20027;-51
2021/09/08 12:54:13;;;;;;;1.48;0.50;;;;;;;;;;7397692;19;20175;-51
2021/09/08 12:56:42;;;;;;;2.03;0.50;;;;;;;;;;7394676;19;20405;-55
2021/09/08 12:59:09;;;;;;;3.00;0.50;;;;;;;;;;7396866;19;20013;-48
2021/09/08 13:01:39;;;;;;;1.27;0.50;;;;;;;;;;7396990;19;20011;-46
2021/09/08 13:04:12;;;;;;;0.47;0.30;;;;;;;;;;7397415;19;20043;-50
2021/09/08 13:06:40;;;;;;;2.05;0.40;;;;;;;;;;7397159;19;20011;-49
2021/09/08 13:09:08;;;;;;;0.30;0.30;;;;;;;;;;7397178;19;20034;-53
2021/09/08 13:11:36;;;;;;;1.13;0.40;;;;;;;;;;7396703;19;20495;-50
2021/09/08 13:14:04;;;;;;;1.33;0.30;;;;;;;;;;7396788;19;20018;-51
2021/09/08 13:16:33;;;;;;;0.82;0.52;;;;;;;;;;7394104;19;20025;-46
2021/09/08 13:19:03;;;;;;;1.33;0.35;;;;;;;;;;7396909;19;20014;-50
2021/09/08 13:21:35;;;;;;;0.70;0.35;;;;;;;;;;7396626;19;20511;-46
2021/09/08 13:24:04;;;;;;;0.77;0.30;;;;;;;;;;7396580;19;20035;-52
2021/09/08 13:26:31;;;;;;;1.75;0.40;;;;;;;;;;7396179;19;20024;-50
2021/09/08 13:29:03;;;;;;;114.85;58.35;;;;;;;;;;7395248;19;20022;-51
2021/09/08 13:31:32;;;;;;;8.48;3.95;;;;;;;;;;7395994;19;20488;-49
2021/09/08 13:34:02;;;;;;;0.68;0.43;;;;;;;;;;7395999;19;20021;-48
2021/09/08 13:36:31;;;;;;;0.55;0.40;;;;;;;;;;7394047;19;20015;-51
2021/09/08 13:39:00;;;;;;;2.72;0.30;;;;;;;;;;7394411;19;20031;-49
2021/09/08 13:41:28;;;;;;;1.35;0.40;;;;;;;;;;7396204;19;20019;-53
2021/09/08 13:43:55;;;;;;;1.27;0.40;;;;;;;;;;7395594;19;20039;-50
2021/09/08 13:46:23;;;;;;;1.17;0.43;;;;;;;;;;7396521;19;20019;-50
2021/09/08 13:48:51;;;;;;;0.95;0.30;;;;;;;;;;7395968;19;20034;-48
2021/09/08 13:51:19;;;;;;;3.13;0.40;;;;;;;;;;7395973;19;20045;-49
2021/09/08 13:53:47;;;;;;;3.53;0.30;;;;;;;;;;7395533;19;20019;-53
2021/09/08 13:56:15;;;;;;;22.08;11.75;;;;;;;;;;7394009;19;20243;-52
2021/09/08 13:58:43;;;;;;;0.77;0.50;;;;;;;;;;7395267;19;20018;-47
2021/09/08 14:01:10;;;;;;;3.92;0.32;;;;;;;;;;7392788;19;20027;-50
2021/09/08 14:03:38;;;;;;;0.40;0.25;;;;;;;;;;7393646;19;20015;-51
2021/09/08 14:06:06;;;;;;;1.92;0.50;;;;;;;;;;7394918;19;20007;-47
2021/09/08 14:08:34;;;;;;;2.60;0.55;;;;;;;;;;7394930;19;20007;-46
2021/09/08 14:11:02;;;;;;;2.90;0.30;;;;;;;;;;7394792;19;20007;-49
2021/09/08 14:13:29;;;;;;;1.80;0.28;;;;;;;;;;7395023;19;20018;-52
2021/09/08 14:15:57;;;;;;;67.65;34.35;;;;;;;;;;7393075;19;20027;-58
2021/09/08 14:18:24;;;;;;;17.38;8.80;;;;;;;;;;7393565;19;20628;-54
2021/09/08 14:20:53;;;;;;;5.07;0.70;;;;;;;;;;7397506;19;20020;-49
2021/09/08 14:23:23;;;;;;;1.70;0.40;;;;;;;;;;7395096;19;20082;-52
2021/09/08 14:25:54;;;;;;;1.05;0.40;;;;;;;;;;7394254;19;20011;-54
2021/09/08 14:28:25;;;;;;;4.70;2.42;;;;;;;;;;7394981;19;20078;-46
2021/09/08 14:30:54;;;;;;;4.13;1.17;;;;;;;;;;7394300;19;20092;-48
2021/09/08 14:33:22;;;;;;;2.35;0.50;;;;;;;;;;7393762;19;20014;-49
2021/09/08 14:35:49;;;;;;;0.70;0.40;;;;;;;;;;7393268;19;20082;-51
2021/09/08 14:38:18;;;;;;;3.30;0.32;;;;;;;;;;7394349;19;20767;-47
2021/09/08 14:40:46;;;;;;;2.40;0.40;;;;;;;;;;7394129;19;20017;-51
2021/09/08 14:43:16;;;;;;;1.02;0.30;;;;;;;;;;7393749;19;20483;-48
2021/09/08 14:45:47;;;;;;;0.63;0.30;;;;;;;;;;7394813;19;20479;-52
2021/09/08 14:48:15;;;;;;;2.55;0.35;;;;;;;;;;7393338;19;20038;-47
2021/09/08 14:50:42;;;;;;;1.02;0.50;;;;;;;;;;7393439;19;20519;-46
2021/09/08 14:53:10;;;;;;;0.63;0.55;;;;;;;;;;7395102;19;20015;-49
2021/09/08 14:55:40;;;;;;;1.05;0.40;;;;;;;;;;7391438;19;20011;-46